createdAt,value
2023-03-19T00:00:49.410Z,101185.53
2023-03-19T00:03:53.069Z,101200.38
2023-03-19T00:06:56.694Z,101195.16
2023-03-19T00:10:01.639Z,101199.69
2023-03-19T00:13:05.218Z,101196.44
2023-03-19T00:16:09.562Z,101200.03
2023-03-19T00:19:13.119Z,101201.69
2023-03-19T00:22:16.676Z,101195.00
2023-03-19T00:25:21.921Z,101195.00
2023-03-19T00:28:26.062Z,101199.53
2023-03-19T00:31:31.509Z,101197.97
2023-03-19T00:34:35.167Z,101205.75
2023-03-19T00:37:38.687Z,101192.78
2023-03-19T00:40:43.786Z,101197.03
2023-03-19T00:43:47.717Z,101205.81
2023-03-19T00:46:51.789Z,101206.50
2023-03-19T00:49:55.796Z,101198.72
2023-03-19T00:52:59.389Z,101204.06
2023-03-19T00:56:04.289Z,101200.59
2023-03-19T00:59:08.806Z,101202.28
2023-03-19T01:02:12.357Z,101202.34
2023-03-19T01:05:16.539Z,101184.13
2023-03-19T01:08:20.771Z,101195.44
2023-03-19T01:11:25.922Z,101205.06
2023-03-19T01:14:29.381Z,101209.50
2023-03-19T01:17:32.950Z,101205.25
2023-03-19T01:20:37.967Z,101208.81
2023-03-19T01:23:41.554Z,101194.09
2023-03-19T01:26:46.520Z,101202.78
2023-03-19T01:29:50.075Z,101197.69
2023-03-19T01:32:53.971Z,101203.75
2023-03-19T01:35:58.080Z,101196.84
2023-03-19T01:39:01.725Z,101194.06
2023-03-19T01:42:06.947Z,101199.44
2023-03-19T01:45:33.496Z,101196.72
2023-03-19T01:48:43.508Z,101199.22
2023-03-19T01:51:49.150Z,101201.75
2023-03-19T01:54:54.485Z,101194.59
2023-03-19T01:57:59.808Z,101200.72
2023-03-19T02:01:04.380Z,101204.13
2023-03-19T02:04:08.845Z,101200.53
2023-03-19T02:07:13.824Z,101200.47
2023-03-19T02:10:18.948Z,101204.72
2023-03-19T02:13:24.340Z,101195.00
2023-03-19T02:16:28.140Z,101194.13
2023-03-19T02:19:43.044Z,101194.09
2023-03-19T02:22:56.568Z,101194.91
2023-03-19T02:26:08.685Z,101194.06
2023-03-19T02:29:12.743Z,101193.09
2023-03-19T02:32:16.308Z,101190.59
2023-03-19T02:35:20.425Z,101194.09
2023-03-19T02:38:28.049Z,101188.81
2023-03-19T02:41:35.466Z,101186.09
2023-03-19T02:44:39.117Z,101181.72
2023-03-19T02:47:42.872Z,101179.97
2023-03-19T02:50:46.545Z,101182.50
2023-03-19T02:53:50.212Z,101185.16
2023-03-19T02:56:55.276Z,101173.00
2023-03-19T02:59:58.737Z,101171.31
2023-03-19T03:03:03.313Z,101178.16
2023-03-19T03:06:07.452Z,101178.06
2023-03-19T03:09:11.990Z,101192.22
2023-03-19T03:12:17.164Z,101187.75
2023-03-19T03:15:21.639Z,101185.19
2023-03-19T03:18:25.223Z,101180.78
2023-03-19T03:21:29.640Z,101195.59
2023-03-19T03:24:33.510Z,101176.53
2023-03-19T03:27:39.371Z,101186.16
2023-03-19T03:30:42.926Z,101197.41
2023-03-19T03:33:47.033Z,101196.47
2023-03-19T03:36:50.976Z,101191.44
2023-03-19T03:39:54.590Z,101197.28
2023-03-19T03:42:59.511Z,101205.97
2023-03-19T03:46:03.635Z,101200.84
2023-03-19T03:49:07.336Z,101198.34
2023-03-19T03:52:11.345Z,101206.81
2023-03-19T03:55:15.023Z,101198.97
2023-03-19T03:58:20.089Z,101196.47
2023-03-19T04:01:23.752Z,101193.72
2023-03-19T04:04:27.637Z,101203.25
2023-03-19T04:07:31.313Z,101212.78
2023-03-19T04:10:36.772Z,101212.81
2023-03-19T04:13:42.303Z,101204.19
2023-03-19T04:16:46.748Z,101211.25
2023-03-19T04:19:50.305Z,101206.88
2023-03-19T04:22:53.816Z,101200.00
2023-03-19T04:26:00.575Z,101197.44
2023-03-19T04:29:06.376Z,101191.38
2023-03-19T04:32:09.971Z,101200.09
2023-03-19T04:35:13.494Z,101205.22
2023-03-19T04:38:17.026Z,101208.72
2023-03-19T04:41:20.602Z,101200.06
2023-03-19T04:44:25.440Z,101199.19
2023-03-19T04:47:28.934Z,101201.81
2023-03-19T04:50:32.589Z,101208.72
2023-03-19T04:53:36.596Z,101208.81
2023-03-19T04:56:40.145Z,101209.63
2023-03-19T04:59:45.044Z,101224.28
2023-03-19T05:02:48.695Z,101217.41
2023-03-19T05:05:53.962Z,101222.56
2023-03-19T05:08:57.559Z,101228.47
2023-03-19T05:12:01.076Z,101226.88
2023-03-19T05:15:07.289Z,101230.16
2023-03-19T05:18:10.874Z,101229.44
2023-03-19T05:21:15.961Z,101226.88
2023-03-19T05:24:19.666Z,101232.16
2023-03-19T05:27:23.373Z,101231.31
2023-03-19T05:30:28.599Z,101226.84
2023-03-19T05:33:32.428Z,101227.81
2023-03-19T05:36:35.964Z,101227.75
2023-03-19T05:39:39.616Z,101225.22
2023-03-19T05:42:43.180Z,101221.81
2023-03-19T05:45:53.355Z,101218.34
2023-03-19T05:48:56.958Z,101228.81
2023-03-19T05:52:00.609Z,101237.44
2023-03-19T05:55:04.903Z,101241.84
2023-03-19T05:58:08.841Z,101242.81
2023-03-19T06:01:13.906Z,101249.00
2023-03-19T06:04:17.471Z,101248.03
2023-03-19T06:07:21.116Z,101243.66
2023-03-19T06:10:24.608Z,101242.72
2023-03-19T06:13:28.146Z,101248.06
2023-03-19T06:16:33.029Z,101240.94
2023-03-19T06:19:36.590Z,101248.75
2023-03-19T06:22:40.193Z,101250.44
2023-03-19T06:25:43.790Z,101247.75
2023-03-19T06:28:47.378Z,101248.47
2023-03-19T06:31:52.446Z,101253.69
2023-03-19T06:34:56.632Z,101251.56
2023-03-19T06:38:00.175Z,101253.00
2023-03-19T06:41:04.214Z,101254.53
2023-03-19T06:44:08.005Z,101248.94
2023-03-19T06:47:14.333Z,101248.88
2023-03-19T06:50:18.628Z,101251.69
2023-03-19T06:53:22.234Z,101256.56
2023-03-19T06:56:26.159Z,101254.81
2023-03-19T06:59:29.639Z,101258.00
2023-03-19T07:02:35.561Z,101259.84
2023-03-19T07:05:39.152Z,101267.75
2023-03-19T07:08:46.340Z,101260.28
2023-03-19T07:11:49.804Z,101254.38
2023-03-19T07:14:53.310Z,101264.97
2023-03-19T07:17:58.535Z,101277.97
2023-03-19T07:21:02.144Z,101273.03
2023-03-19T07:24:06.519Z,101270.19
2023-03-19T07:27:10.457Z,101267.66
2023-03-19T07:30:16.271Z,101270.50
2023-03-19T07:33:22.226Z,101275.75
2023-03-19T07:36:26.389Z,101277.53
2023-03-19T07:39:30.257Z,101282.56
2023-03-19T07:42:34.096Z,101279.75
2023-03-19T07:45:37.770Z,101282.31
2023-03-19T07:48:42.741Z,101283.44
2023-03-19T07:51:46.570Z,101287.22
2023-03-19T07:54:50.388Z,101290.75
2023-03-19T07:57:54.119Z,101295.91
2023-03-19T08:00:57.641Z,101298.44
2023-03-19T08:04:02.771Z,101301.91
2023-03-19T08:07:06.953Z,101311.47
2023-03-19T08:10:12.757Z,101311.22
2023-03-19T08:13:16.268Z,101309.50
2023-03-19T08:16:19.824Z,101314.19
2023-03-19T08:19:24.993Z,101305.34
2023-03-19T08:22:28.582Z,101310.50
2023-03-19T08:25:32.736Z,101311.41
2023-03-19T08:28:37.393Z,101306.06
2023-03-19T08:31:41.063Z,101314.41
2023-03-19T08:34:49.005Z,101314.19
2023-03-19T08:37:52.999Z,101312.59
2023-03-19T08:41:02.939Z,101305.13
2023-03-19T08:44:07.093Z,101302.97
2023-03-19T08:47:11.424Z,101303.53
2023-03-19T08:50:17.881Z,101299.91
2023-03-19T08:53:21.599Z,101301.94
2023-03-19T08:56:25.162Z,101305.53
2023-03-19T08:59:30.220Z,101309.44
2023-03-19T09:02:34.585Z,101307.41
2023-03-19T09:05:39.763Z,101307.84
2023-03-19T09:08:44.614Z,101318.81
2023-03-19T09:11:49.052Z,101315.59
2023-03-19T09:14:52.595Z,101311.03
2023-03-19T09:17:56.217Z,101314.66
2023-03-19T09:21:01.962Z,101322.66
2023-03-19T09:24:06.128Z,101321.78
2023-03-19T09:27:09.873Z,101320.41
2023-03-19T09:30:15.279Z,101323.38
2023-03-19T09:33:21.463Z,101329.56
2023-03-19T09:36:26.705Z,101333.69
2023-03-19T09:39:30.867Z,101335.41
2023-03-19T09:42:57.136Z,101336.53
2023-03-19T09:46:05.403Z,101334.19
2023-03-19T09:49:22.446Z,101323.75
2023-03-19T09:52:42.486Z,101321.06
2023-03-19T09:55:49.957Z,101331.13
2023-03-19T09:58:54.088Z,101327.56
2023-03-19T10:02:22.524Z,101328.16
2023-03-19T10:05:38.343Z,101335.47
2023-03-19T10:09:05.821Z,101340.44
2023-03-19T10:12:35.967Z,101338.81
2023-03-19T10:15:44.355Z,101337.31
2023-03-19T10:18:52.903Z,101338.25
2023-03-19T10:22:04.409Z,101340.94
2023-03-19T10:25:20.009Z,101325.66
2023-03-19T10:28:24.332Z,101326.38
2023-03-19T10:31:30.345Z,101324.06
2023-03-19T10:34:38.418Z,101319.75
2023-03-19T10:37:41.924Z,101318.69
2023-03-19T10:41:04.801Z,101318.91
2023-03-19T10:44:18.320Z,101321.91
2023-03-19T10:47:26.874Z,101316.03
2023-03-19T10:50:36.148Z,101325.25
2023-03-19T10:53:41.307Z,101327.91
2023-03-19T10:56:49.347Z,101324.66
2023-03-19T10:59:52.965Z,101328.34
2023-03-19T11:02:59.159Z,101329.25
2023-03-19T11:06:17.170Z,101327.19
2023-03-19T11:09:32.943Z,101336.81
2023-03-19T11:12:38.942Z,101339.66
2023-03-19T11:15:42.696Z,101344.50
2023-03-19T11:18:50.968Z,101338.56
2023-03-19T11:22:18.957Z,101348.41
2023-03-19T11:25:29.738Z,101344.56
2023-03-19T11:28:38.380Z,101348.31
2023-03-19T11:31:53.244Z,101354.41
2023-03-19T11:35:04.429Z,101357.28
2023-03-19T11:38:19.680Z,101361.28
2023-03-19T11:41:35.196Z,101358.94
2023-03-19T11:44:59.252Z,101365.91
2023-03-19T11:48:32.622Z,101366.59
2023-03-19T11:51:46.699Z,101370.00
2023-03-19T11:55:09.911Z,101359.25
2023-03-19T11:58:45.654Z,101363.06
2023-03-19T12:02:34.225Z,101362.53
2023-03-19T12:05:51.897Z,101371.25
2023-03-19T12:09:05.980Z,101376.78
2023-03-19T12:12:26.646Z,101376.00
2023-03-19T12:15:41.550Z,101379.66
2023-03-19T12:19:15.654Z,101379.56
2023-03-19T12:22:41.482Z,101386.09
2023-03-19T12:26:06.280Z,101386.97
2023-03-19T12:29:25.600Z,101387.66
2023-03-19T12:32:55.913Z,101383.88
2023-03-19T12:36:04.854Z,101390.41
2023-03-19T12:39:16.663Z,101394.50
2023-03-19T12:42:24.495Z,101408.97
2023-03-19T12:45:35.962Z,101414.75
2023-03-19T12:48:45.941Z,101422.41
2023-03-19T12:51:58.427Z,101420.25
2023-03-19T12:55:15.193Z,101415.28
2023-03-19T12:58:31.509Z,101417.91
2023-03-19T13:01:42.485Z,101414.97
2023-03-19T13:04:54.574Z,101410.88
2023-03-19T13:08:13.515Z,101414.09
2023-03-19T13:11:29.281Z,101401.06
2023-03-19T13:14:47.506Z,101393.03
2023-03-19T13:18:06.320Z,101386.13
2023-03-19T13:21:24.726Z,101386.13
2023-03-19T13:24:35.041Z,101386.50
2023-03-19T13:27:39.217Z,101387.34
2023-03-19T13:31:02.039Z,101384.19
2023-03-19T13:34:20.400Z,101379.31
2023-03-19T13:37:25.807Z,101382.25
2023-03-19T13:40:48.923Z,101374.53
2023-03-19T13:43:56.645Z,101371.94
2023-03-19T13:47:04.543Z,101370.16
2023-03-19T13:50:50.311Z,101368.09
2023-03-19T13:54:08.391Z,101360.09
2023-03-19T13:57:38.472Z,101354.88
2023-03-19T14:01:01.516Z,101356.09
2023-03-19T14:04:07.518Z,101350.03
2023-03-19T14:07:21.942Z,101356.69
2023-03-19T14:10:32.653Z,101353.50
2023-03-19T14:13:43.253Z,101350.25
2023-03-19T14:16:47.586Z,101353.66
2023-03-19T14:19:54.095Z,101354.78
2023-03-19T14:23:23.337Z,101362.41
2023-03-19T14:26:29.966Z,101355.69
2023-03-19T14:29:37.090Z,101356.00
2023-03-19T14:32:47.809Z,101351.91
2023-03-19T14:35:51.963Z,101349.84
2023-03-19T14:39:01.276Z,101358.03
2023-03-19T14:42:15.577Z,101350.88
2023-03-19T14:45:49.868Z,101357.75
2023-03-19T14:49:54.578Z,101352.28
2023-03-19T14:53:06.403Z,101352.34
2023-03-19T14:56:17.023Z,101344.09
2023-03-19T14:59:20.785Z,101353.38
2023-03-19T15:02:38.336Z,101358.03
2023-03-19T15:05:42.325Z,101358.63
2023-03-19T15:08:49.584Z,101353.94
2023-03-19T15:12:31.681Z,101350.13
2023-03-19T15:16:01.257Z,101355.94
2023-03-19T15:19:11.229Z,101358.03
2023-03-19T15:22:20.320Z,101352.69
2023-03-19T15:25:25.244Z,101359.97
2023-03-19T15:28:32.318Z,101369.50
2023-03-19T15:31:52.690Z,101365.88
2023-03-19T15:35:03.706Z,101366.22
2023-03-19T15:38:13.490Z,101368.69
2023-03-19T15:41:20.014Z,101367.69
2023-03-19T15:44:33.309Z,101373.22
2023-03-19T15:47:41.983Z,101372.63
2023-03-19T15:50:51.443Z,101366.78
2023-03-19T15:53:55.903Z,101371.44
2023-03-19T15:56:59.591Z,101368.66
2023-03-19T16:00:06.106Z,101378.22
2023-03-19T16:03:18.677Z,101387.13
2023-03-19T16:06:28.662Z,101383.66
2023-03-19T16:09:35.488Z,101385.78
2023-03-19T16:12:42.339Z,101385.28
2023-03-19T16:15:49.599Z,101386.91
2023-03-19T16:18:55.647Z,101390.00
2023-03-19T16:22:03.274Z,101389.47
2023-03-19T16:25:19.992Z,101394.00
2023-03-19T16:28:25.210Z,101395.38
2023-03-19T16:31:32.348Z,101397.38
2023-03-19T16:34:46.890Z,101401.03
2023-03-19T16:37:54.630Z,101401.47
2023-03-19T16:41:24.273Z,101409.13
2023-03-19T16:44:31.549Z,101417.16
2023-03-19T16:47:35.133Z,101424.50
2023-03-19T16:50:41.232Z,101424.91
2023-03-19T16:53:46.872Z,101424.91
2023-03-19T16:56:50.771Z,101433.00
2023-03-19T16:59:54.558Z,101427.94
2023-03-19T17:02:58.260Z,101430.69
2023-03-19T17:06:04.534Z,101424.88
2023-03-19T17:09:10.557Z,101440.91
2023-03-19T17:12:18.915Z,101440.25
2023-03-19T17:15:35.146Z,101439.69
2023-03-19T17:18:43.347Z,101445.00
2023-03-19T17:21:48.761Z,101449.69
2023-03-19T17:24:54.830Z,101444.75
2023-03-19T17:27:58.477Z,101448.59
2023-03-19T17:31:02.118Z,101449.72
2023-03-19T17:34:11.757Z,101459.78
2023-03-19T17:37:15.876Z,101463.44
2023-03-19T17:40:25.324Z,101459.44
2023-03-19T17:43:29.124Z,101466.88
2023-03-19T17:46:39.614Z,101470.72
2023-03-19T17:49:43.641Z,101477.13
2023-03-19T17:52:48.715Z,101473.88
2023-03-19T17:55:53.698Z,101477.66
2023-03-19T17:58:57.794Z,101484.75
2023-03-19T18:02:02.487Z,101490.31
2023-03-19T18:05:07.492Z,101497.66
2023-03-19T18:08:16.695Z,101492.59
2023-03-19T18:11:21.748Z,101497.13
2023-03-19T18:14:26.453Z,101498.06
2023-03-19T18:17:30.371Z,101512.16
2023-03-19T18:20:38.856Z,101522.91
2023-03-19T18:23:43.157Z,101526.63
2023-03-19T18:26:49.561Z,101533.91
2023-03-19T18:29:54.211Z,101534.19
2023-03-19T18:33:03.228Z,101537.00
2023-03-19T18:36:08.941Z,101546.75
2023-03-19T18:39:15.693Z,101553.84
2023-03-19T18:42:22.698Z,101547.94
2023-03-19T18:45:36.616Z,101558.53
2023-03-19T18:48:40.300Z,101550.78
2023-03-19T18:52:00.732Z,101551.75
2023-03-19T18:55:08.450Z,101550.94
2023-03-19T18:58:21.271Z,101558.91
2023-03-19T19:01:26.274Z,101560.69
2023-03-19T19:04:31.295Z,101557.28
2023-03-19T19:07:35.085Z,101563.50
2023-03-19T19:10:44.514Z,101561.06
2023-03-19T19:13:56.463Z,101567.22
2023-03-19T19:17:00.512Z,101571.72
2023-03-19T19:20:04.212Z,101577.94
2023-03-19T19:23:07.875Z,101582.44
2023-03-19T19:26:23.730Z,101583.41
2023-03-19T19:29:31.201Z,101599.28
2023-03-19T19:32:36.493Z,101612.97
2023-03-19T19:35:40.205Z,101603.22
2023-03-19T19:38:43.680Z,101619.84
2023-03-19T19:41:48.009Z,101628.56
2023-03-19T19:44:59.840Z,101635.59
2023-03-19T19:48:04.293Z,101640.00
2023-03-19T19:51:09.252Z,101644.53
2023-03-19T19:54:12.788Z,101659.56
2023-03-19T19:57:21.980Z,101655.38
2023-03-19T20:00:30.564Z,101665.38
2023-03-19T20:03:35.212Z,101676.84
2023-03-19T20:06:38.780Z,101682.16
2023-03-19T20:09:42.604Z,101688.31
2023-03-19T20:12:51.126Z,101688.31
2023-03-19T20:15:58.509Z,101690.00
2023-03-19T20:19:02.064Z,101693.50
2023-03-19T20:22:05.633Z,101684.84
2023-03-19T20:25:10.028Z,101703.06
2023-03-19T20:28:23.004Z,101710.06
2023-03-19T20:31:31.124Z,101708.28
2023-03-19T20:34:39.482Z,101706.59
2023-03-19T20:37:43.350Z,101711.84
2023-03-19T20:40:51.241Z,101724.03
2023-03-19T20:43:56.674Z,101723.16
2023-03-19T20:47:01.735Z,101735.31
2023-03-19T20:50:05.874Z,101737.03
2023-03-19T20:53:09.702Z,101733.50
2023-03-19T20:56:17.431Z,101733.50
2023-03-19T20:59:21.091Z,101741.34
2023-03-19T21:02:27.675Z,101743.06
2023-03-19T21:05:37.375Z,101748.25
2023-03-19T21:08:43.883Z,101741.25
2023-03-19T21:11:49.180Z,101734.28
2023-03-19T21:14:52.974Z,101736.88
2023-03-19T21:17:58.700Z,101737.72
2023-03-19T21:21:02.260Z,101742.13
2023-03-19T21:24:13.736Z,101740.34
2023-03-19T21:27:25.377Z,101746.44
2023-03-19T21:30:29.026Z,101743.75
2023-03-19T21:33:36.300Z,101742.00
2023-03-19T21:36:39.998Z,101751.53
2023-03-19T21:39:43.806Z,101736.72
2023-03-19T21:42:52.224Z,101734.13
2023-03-19T21:45:56.581Z,101728.03
2023-03-19T21:49:01.504Z,101727.16
2023-03-19T21:52:04.977Z,101723.59
2023-03-19T21:55:12.020Z,101731.31
2023-03-19T21:58:19.494Z,101723.38
2023-03-19T22:01:25.556Z,101734.84
2023-03-19T22:04:30.424Z,101732.31
2023-03-19T22:07:33.997Z,101732.19
2023-03-19T22:10:37.941Z,101727.84
2023-03-19T22:13:43.297Z,101727.84
2023-03-19T22:16:47.828Z,101729.59
2023-03-19T22:19:52.875Z,101736.47
2023-03-19T22:22:58.319Z,101733.81
2023-03-19T22:26:01.918Z,101730.25
2023-03-19T22:29:12.477Z,101739.03
2023-03-19T22:32:19.414Z,101743.38
2023-03-19T22:35:25.160Z,101743.34
2023-03-19T22:38:28.656Z,101740.66
2023-03-19T22:41:35.948Z,101731.88
2023-03-19T22:44:39.536Z,101733.66
2023-03-19T22:47:43.370Z,101730.19
2023-03-19T22:50:48.162Z,101731.13
2023-03-19T22:53:52.636Z,101738.06
2023-03-19T22:56:56.105Z,101735.25
2023-03-19T22:59:59.603Z,101727.53
2023-03-19T23:03:03.265Z,101728.44
2023-03-19T23:06:28.839Z,101717.09
2023-03-19T23:09:37.764Z,101715.34
2023-03-19T23:12:41.606Z,101716.00
2023-03-19T23:15:45.846Z,101709.09
2023-03-19T23:18:50.669Z,101717.81
2023-03-19T23:21:56.363Z,101723.03
2023-03-19T23:25:02.129Z,101719.53
2023-03-19T23:28:06.004Z,101722.97
2023-03-19T23:31:12.402Z,101719.50
2023-03-19T23:34:17.160Z,101722.97
2023-03-19T23:37:22.780Z,101733.34
2023-03-19T23:40:31.324Z,101734.22
2023-03-19T23:43:36.628Z,101739.41
2023-03-19T23:46:40.554Z,101740.28
2023-03-19T23:49:44.902Z,101743.75
2023-03-19T23:52:50.347Z,101740.22
2023-03-19T23:55:59.043Z,101731.44
2023-03-19T23:59:02.721Z,101729.72
